createdAt,value
2023-03-11T00:00:58.171Z,98978.78
2023-03-11T00:03:47.749Z,98981.56
2023-03-11T00:06:36.906Z,98983.44
2023-03-11T00:09:19.188Z,98995.22
2023-03-11T00:12:07.867Z,98991.97
2023-03-11T00:14:50.169Z,99003.28
2023-03-11T00:17:38.881Z,98998.63
2023-03-11T00:20:41.761Z,98997.53
2023-03-11T00:23:31.870Z,98997.22
2023-03-11T00:26:20.816Z,99001.41
2023-03-11T00:29:09.178Z,99004.22
2023-03-11T00:31:50.903Z,99005.72
2023-03-11T00:34:39.138Z,99009.31
2023-03-11T00:37:21.848Z,99005.34
2023-03-11T00:40:16.866Z,99019.25
2023-03-11T00:42:59.363Z,99021.31
2023-03-11T00:45:48.034Z,99020.50
2023-03-11T00:48:30.181Z,99022.03
2023-03-11T00:51:24.877Z,99027.53
2023-03-11T00:54:13.923Z,99028.56
2023-03-11T00:56:57.129Z,99028.69
2023-03-11T00:59:45.842Z,99026.13
2023-03-11T01:02:34.121Z,99033.38
2023-03-11T01:05:17.848Z,99041.28
2023-03-11T01:08:00.853Z,99035.44
2023-03-11T01:10:50.848Z,99036.16
2023-03-11T01:13:33.275Z,99031.75
2023-03-11T01:16:22.909Z,99035.00
2023-03-11T01:19:11.890Z,99039.44
2023-03-11T01:22:02.901Z,99048.66
2023-03-11T01:24:45.124Z,99048.28
2023-03-11T01:27:33.924Z,99047.84
2023-03-11T01:30:20.476Z,99047.56
2023-03-11T01:33:11.166Z,99056.81
2023-03-11T01:36:00.296Z,99058.44
2023-03-11T01:38:42.836Z,99059.00
2023-03-11T01:41:31.117Z,99064.31
2023-03-11T01:44:13.792Z,99070.22
2023-03-11T01:46:56.025Z,99068.94
2023-03-11T01:49:49.786Z,99069.38
2023-03-11T01:52:32.573Z,99061.66
2023-03-11T01:55:22.884Z,99079.19
2023-03-11T01:58:15.856Z,99075.88
2023-03-11T02:00:59.140Z,99076.41
2023-03-11T02:03:49.801Z,99087.00
2023-03-11T02:06:33.176Z,99087.69
2023-03-11T02:09:21.891Z,99103.38
2023-03-11T02:12:06.144Z,99102.00
2023-03-11T02:14:58.805Z,99105.34
2023-03-11T02:17:44.180Z,99112.50
2023-03-11T02:20:51.882Z,99111.38
2023-03-11T02:24:21.100Z,99118.38
2023-03-11T02:27:04.879Z,99117.00
2023-03-11T02:29:49.233Z,99123.66
2023-03-11T02:32:38.962Z,99119.72
2023-03-11T02:35:29.173Z,99124.34
2023-03-11T02:38:14.359Z,99128.47
2023-03-11T02:41:08.285Z,99131.28
2023-03-11T02:43:53.897Z,99130.97
2023-03-11T02:46:44.820Z,99132.38
2023-03-11T02:49:30.182Z,99129.31
2023-03-11T02:52:20.697Z,99137.31
2023-03-11T02:55:04.164Z,99146.19
2023-03-11T02:57:55.851Z,99149.13
2023-03-11T03:00:38.334Z,99157.69
2023-03-11T03:03:27.836Z,99157.56
2023-03-11T03:06:16.725Z,99153.63
2023-03-11T03:09:07.834Z,99174.53
2023-03-11T03:11:50.151Z,99165.22
2023-03-11T03:14:39.915Z,99172.88
2023-03-11T03:17:22.178Z,99174.28
2023-03-11T03:20:14.810Z,99176.78
2023-03-11T03:23:13.873Z,99185.03
2023-03-11T03:26:03.453Z,99191.91
2023-03-11T03:28:46.778Z,99191.06
2023-03-11T03:31:29.180Z,99197.94
2023-03-11T03:34:18.832Z,99199.69
2023-03-11T03:37:08.107Z,99194.84
2023-03-11T03:39:50.885Z,99206.75
2023-03-11T03:42:39.934Z,99205.13
2023-03-11T03:45:23.102Z,99201.63
2023-03-11T03:48:12.841Z,99210.00
2023-03-11T03:51:02.889Z,99214.88
2023-03-11T03:53:48.998Z,99221.59
2023-03-11T03:56:40.314Z,99221.63
2023-03-11T03:59:28.086Z,99218.09
2023-03-11T04:02:10.935Z,99225.38
2023-03-11T04:04:59.846Z,99226.13
2023-03-11T04:07:43.109Z,99224.28
2023-03-11T04:10:32.819Z,99225.38
2023-03-11T04:13:15.135Z,99229.91
2023-03-11T04:16:04.813Z,99224.81
2023-03-11T04:18:47.103Z,99233.03
2023-03-11T04:21:42.884Z,99232.91
2023-03-11T04:24:32.142Z,99230.47
2023-03-11T04:27:14.910Z,99238.69
2023-03-11T04:30:04.237Z,99231.31
2023-03-11T04:32:46.934Z,99236.38
2023-03-11T04:35:36.428Z,99244.88
2023-03-11T04:38:18.859Z,99235.91
2023-03-11T04:41:05.802Z,99236.25
2023-03-11T04:43:56.886Z,99239.09
2023-03-11T04:46:45.050Z,99234.31
2023-03-11T04:49:30.385Z,99232.34
2023-03-11T04:52:24.875Z,99237.91
2023-03-11T04:55:15.116Z,99234.38
2023-03-11T04:57:57.909Z,99230.16
2023-03-11T05:00:42.388Z,99228.81
2023-03-11T05:03:31.835Z,99218.78
2023-03-11T05:06:15.399Z,99219.38
2023-03-11T05:09:03.894Z,99216.78
2023-03-11T05:11:55.138Z,99211.72
2023-03-11T05:14:38.857Z,99217.75
2023-03-11T05:17:28.265Z,99220.06
2023-03-11T05:20:15.629Z,99209.19
2023-03-11T05:23:06.680Z,99216.63
2023-03-11T05:25:49.853Z,99215.19
2023-03-11T05:28:32.795Z,99213.25
2023-03-11T05:31:22.852Z,99215.50
2023-03-11T05:34:05.023Z,99215.13
2023-03-11T05:36:53.842Z,99214.50
2023-03-11T05:39:38.864Z,99216.41
2023-03-11T05:42:30.128Z,99207.84
2023-03-11T05:45:20.182Z,99209.81
2023-03-11T05:48:03.819Z,99222.13
2023-03-11T05:50:54.255Z,99214.25
2023-03-11T05:53:36.888Z,99215.97
2023-03-11T05:56:28.241Z,99208.69
2023-03-11T05:59:12.847Z,99220.34
2023-03-11T06:02:03.613Z,99217.19
2023-03-11T06:04:55.153Z,99214.06
2023-03-11T06:07:45.097Z,99204.34
2023-03-11T06:10:27.833Z,99206.66
2023-03-11T06:13:17.177Z,99204.13
2023-03-11T06:16:00.892Z,99200.31
2023-03-11T06:18:43.026Z,99204.31
2023-03-11T06:21:34.850Z,99194.78
2023-03-11T06:24:23.168Z,99194.81
2023-03-11T06:27:07.687Z,99194.28
2023-03-11T06:30:01.183Z,99184.44
2023-03-11T06:32:52.983Z,99181.94
2023-03-11T06:35:35.054Z,99176.53
2023-03-11T06:38:23.858Z,99179.44
2023-03-11T06:41:07.578Z,99169.97
2023-03-11T06:43:57.835Z,99173.97
2023-03-11T06:46:41.540Z,99167.75
2023-03-11T06:49:31.835Z,99173.97
2023-03-11T06:52:21.268Z,99159.00
2023-03-11T06:55:04.843Z,99160.53
2023-03-11T06:57:47.193Z,99151.75
2023-03-11T07:00:36.180Z,99148.91
2023-03-11T07:03:25.083Z,99148.09
2023-03-11T07:06:08.881Z,99138.91
2023-03-11T07:08:59.284Z,99141.19
2023-03-11T07:11:43.846Z,99132.47
2023-03-11T07:14:33.064Z,99131.75
2023-03-11T07:17:21.861Z,99123.75
2023-03-11T07:20:12.138Z,99115.72
2023-03-11T07:23:07.811Z,99107.47
2023-03-11T07:25:57.226Z,99111.91
2023-03-11T07:28:39.907Z,99115.88
2023-03-11T07:31:32.239Z,99099.69
2023-03-11T07:34:18.965Z,99103.84
2023-03-11T07:37:08.173Z,99095.81
2023-03-11T07:39:50.852Z,99099.31
2023-03-11T07:42:39.158Z,99096.75
2023-03-11T07:45:21.883Z,99089.78
2023-03-11T07:48:11.063Z,99079.22
2023-03-11T07:50:53.923Z,99087.72
2023-03-11T07:53:43.230Z,99072.94
2023-03-11T07:56:26.860Z,99067.03
2023-03-11T07:59:15.070Z,99064.16
2023-03-11T08:01:57.842Z,99055.91
2023-03-11T08:04:46.138Z,99059.28
2023-03-11T08:07:29.190Z,99050.09
2023-03-11T08:10:18.178Z,99052.97
2023-03-11T08:13:00.877Z,99042.69
2023-03-11T08:15:43.177Z,99050.59
2023-03-11T08:18:31.839Z,99044.34
2023-03-11T08:21:16.971Z,99034.28
2023-03-11T08:24:07.054Z,99041.28
2023-03-11T08:27:00.957Z,99032.56
2023-03-11T08:29:42.880Z,99028.53
2023-03-11T08:32:25.066Z,99018.50
2023-03-11T08:35:14.854Z,99013.94
2023-03-11T08:37:57.130Z,99020.69
2023-03-11T08:40:45.833Z,99011.22
2023-03-11T08:43:35.218Z,99006.75
2023-03-11T08:46:22.030Z,99005.47
2023-03-11T08:49:05.344Z,99008.22
2023-03-11T08:51:53.767Z,98997.06
2023-03-11T08:54:43.834Z,98993.22
2023-03-11T08:57:26.871Z,98986.09
2023-03-11T09:00:17.475Z,98993.44
2023-03-11T09:03:00.221Z,98981.06
2023-03-11T09:05:48.809Z,98986.44
2023-03-11T09:08:31.250Z,98971.38
2023-03-11T09:11:23.143Z,98969.16
2023-03-11T09:14:05.164Z,98974.09
2023-03-11T09:16:53.868Z,98965.97
2023-03-11T09:19:37.057Z,98967.91
2023-03-11T09:22:31.793Z,98965.16
2023-03-11T09:25:21.173Z,98960.31
2023-03-11T09:28:02.847Z,98960.06
2023-03-11T09:30:51.217Z,98954.59
2023-03-11T09:33:33.787Z,98959.81
2023-03-11T09:36:25.209Z,98946.34
2023-03-11T09:39:08.877Z,98950.25
2023-03-11T09:42:03.205Z,98950.59
2023-03-11T09:45:02.872Z,98946.81
2023-03-11T09:48:12.824Z,98936.47
2023-03-11T09:50:58.207Z,98942.22
2023-03-11T09:53:54.874Z,98926.47
2023-03-11T09:56:44.584Z,98930.25
2023-03-11T09:59:42.010Z,98924.91
2023-03-11T10:02:28.755Z,98917.53
2023-03-11T10:05:37.859Z,98914.19
2023-03-11T10:09:05.599Z,98915.00
2023-03-11T10:12:20.102Z,98914.09
2023-03-11T10:15:08.338Z,98909.16
2023-03-11T10:18:25.762Z,98915.00
2023-03-11T10:21:29.878Z,98909.38
2023-03-11T10:25:08.253Z,98903.75
2023-03-11T10:27:55.865Z,98904.13
2023-03-11T10:31:09.215Z,98906.69
2023-03-11T10:34:14.886Z,98904.00
2023-03-11T10:37:46.292Z,98903.16
2023-03-11T10:40:47.895Z,98889.50
2023-03-11T10:44:10.113Z,98886.59
2023-03-11T10:46:52.839Z,98889.94
2023-03-11T10:49:41.092Z,98893.25
2023-03-11T10:52:24.837Z,98877.50
2023-03-11T10:55:14.149Z,98881.22
2023-03-11T10:57:56.856Z,98885.56
2023-03-11T11:00:39.125Z,98883.66
2023-03-11T11:03:35.838Z,98884.16
2023-03-11T11:06:30.185Z,98878.72
2023-03-11T11:09:33.779Z,98876.41
2023-03-11T11:12:18.790Z,98877.97
2023-03-11T11:15:08.088Z,98880.94
2023-03-11T11:17:57.122Z,98875.69
2023-03-11T11:20:40.926Z,98871.59
2023-03-11T11:24:03.629Z,98873.34
2023-03-11T11:27:11.910Z,98879.38
2023-03-11T11:29:56.071Z,98875.19
2023-03-11T11:32:45.963Z,98878.56
2023-03-11T11:35:31.175Z,98872.13
2023-03-11T11:38:20.055Z,98872.84
2023-03-11T11:41:06.564Z,98872.94
2023-03-11T11:44:02.806Z,98872.56
2023-03-11T11:47:06.485Z,98873.88
2023-03-11T11:50:05.760Z,98873.88
2023-03-11T11:53:03.840Z,98878.03
2023-03-11T11:55:51.683Z,98871.47
2023-03-11T11:58:40.827Z,98872.06
2023-03-11T12:01:40.125Z,98874.91
2023-03-11T12:04:48.824Z,98868.84
2023-03-11T12:08:05.329Z,98873.41
2023-03-11T12:11:01.849Z,98877.09
2023-03-11T12:14:05.356Z,98874.25
2023-03-11T12:17:25.238Z,98871.84
2023-03-11T12:20:24.161Z,98877.97
2023-03-11T12:23:17.813Z,98879.66
2023-03-11T12:26:21.826Z,98876.25
2023-03-11T12:29:21.836Z,98885.06
2023-03-11T12:32:11.942Z,98882.19
2023-03-11T12:35:01.142Z,98883.63
2023-03-11T12:37:43.832Z,98890.84
2023-03-11T12:40:48.408Z,98885.56
2023-03-11T12:43:45.905Z,98884.81
2023-03-11T12:47:01.494Z,98882.41
2023-03-11T12:49:59.790Z,98887.13
2023-03-11T12:52:56.403Z,98888.28
2023-03-11T12:55:47.819Z,98892.72
2023-03-11T12:58:48.124Z,98884.19
2023-03-11T13:02:01.995Z,98889.44
2023-03-11T13:05:08.810Z,98895.56
2023-03-11T13:08:08.792Z,98900.09
2023-03-11T13:11:02.078Z,98895.81
2023-03-11T13:13:45.824Z,98901.88
2023-03-11T13:16:28.169Z,98909.38
2023-03-11T13:19:49.139Z,98903.25
2023-03-11T13:23:17.880Z,98910.91
2023-03-11T13:26:27.855Z,98910.38
2023-03-11T13:29:30.249Z,98912.31
2023-03-11T13:32:36.901Z,98917.75
2023-03-11T13:35:56.402Z,98922.97
2023-03-11T13:39:16.843Z,98928.75
2023-03-11T13:42:00.309Z,98928.25
2023-03-11T13:44:49.854Z,98933.44
2023-03-11T13:47:39.259Z,98931.38
2023-03-11T13:50:39.790Z,98934.84
2023-03-11T13:53:40.836Z,98939.75
2023-03-11T13:56:37.111Z,98943.03
2023-03-11T13:59:32.871Z,98947.66
2023-03-11T14:02:31.359Z,98953.66
2023-03-11T14:05:24.830Z,98955.00
2023-03-11T14:08:28.402Z,98960.69
2023-03-11T14:11:29.858Z,98954.75
2023-03-11T14:14:52.221Z,98953.72
2023-03-11T14:17:34.867Z,98958.38
2023-03-11T14:20:21.132Z,98964.09
2023-03-11T14:23:12.214Z,98972.81
2023-03-11T14:26:13.060Z,98975.88
2023-03-11T14:29:00.062Z,98978.69
2023-03-11T14:31:47.062Z,98987.13
2023-03-11T14:34:40.912Z,98988.22
2023-03-11T14:37:29.162Z,98993.16
2023-03-11T14:40:19.888Z,98995.66
2023-03-11T14:43:16.857Z,98998.88
2023-03-11T14:46:01.185Z,99005.16
2023-03-11T14:48:51.832Z,99006.50
2023-03-11T14:51:39.171Z,99002.72
2023-03-11T14:54:35.938Z,99009.50
2023-03-11T14:57:32.138Z,99017.91
2023-03-11T15:00:47.876Z,99015.00
2023-03-11T15:03:55.819Z,99023.41
2023-03-11T15:06:50.150Z,99024.78
2023-03-11T15:09:34.827Z,99024.53
2023-03-11T15:12:45.875Z,99021.31
2023-03-11T15:15:32.092Z,99025.38
2023-03-11T15:18:31.830Z,99028.38
2023-03-11T15:21:26.266Z,99037.31
2023-03-11T15:24:14.949Z,99041.09
2023-03-11T15:27:13.110Z,99037.31
2023-03-11T15:30:02.814Z,99036.19
2023-03-11T15:32:57.195Z,99044.31
2023-03-11T15:35:56.257Z,99042.72
2023-03-11T15:38:37.821Z,99051.91
2023-03-11T15:41:26.903Z,99047.59
2023-03-11T15:44:09.425Z,99047.84
2023-03-11T15:46:57.855Z,99050.56
2023-03-11T15:49:41.348Z,99053.00
2023-03-11T15:52:29.914Z,99050.00
2023-03-11T15:55:12.433Z,99057.31
2023-03-11T15:58:11.808Z,99060.84
2023-03-11T16:01:00.204Z,99061.94
2023-03-11T16:03:48.888Z,99066.28
2023-03-11T16:06:31.249Z,99056.78
2023-03-11T16:09:20.867Z,99055.69
2023-03-11T16:12:03.275Z,99062.44
2023-03-11T16:14:52.853Z,99056.75
2023-03-11T16:17:48.873Z,99063.53
2023-03-11T16:21:22.986Z,99060.03
2023-03-11T16:24:29.150Z,99067.59
2023-03-11T16:27:11.814Z,99060.53
2023-03-11T16:30:01.290Z,99063.53
2023-03-11T16:32:42.871Z,99066.75
2023-03-11T16:35:32.164Z,99061.09
2023-03-11T16:38:15.784Z,99064.63
2023-03-11T16:41:00.965Z,99064.63
2023-03-11T16:43:49.860Z,99059.47
2023-03-11T16:46:32.129Z,99070.56
2023-03-11T16:49:24.697Z,99064.34
2023-03-11T16:52:07.260Z,99064.38
2023-03-11T16:54:55.819Z,99061.91
2023-03-11T16:57:44.152Z,99064.88
2023-03-11T17:00:26.809Z,99060.03
2023-03-11T17:03:21.550Z,99059.19
2023-03-11T17:06:12.804Z,99058.38
2023-03-11T17:09:01.265Z,99061.34
2023-03-11T17:11:43.871Z,99065.38
2023-03-11T17:14:27.064Z,99064.56
2023-03-11T17:17:15.858Z,99071.31
2023-03-11T17:20:04.732Z,99062.88
2023-03-11T17:23:00.882Z,99068.00
2023-03-11T17:25:50.050Z,99070.13
2023-03-11T17:28:31.869Z,99076.06
2023-03-11T17:31:23.388Z,99070.06
2023-03-11T17:34:06.900Z,99063.59
2023-03-11T17:36:57.164Z,99067.66
2023-03-11T17:39:38.837Z,99065.47
2023-03-11T17:42:21.203Z,99068.16
2023-03-11T17:45:12.767Z,99064.06
2023-03-11T17:48:02.252Z,99067.38
2023-03-11T17:50:48.075Z,99058.13
2023-03-11T17:53:39.010Z,99057.28
2023-03-11T17:56:22.817Z,99051.63
2023-03-11T17:59:12.201Z,99049.44
2023-03-11T18:01:54.848Z,99054.31
2023-03-11T18:04:44.843Z,99054.34
2023-03-11T18:07:28.189Z,99050.53
2023-03-11T18:10:17.816Z,99044.84
2023-03-11T18:13:00.205Z,99037.53
2023-03-11T18:15:48.799Z,99042.91
2023-03-11T18:18:53.689Z,99047.78
2023-03-11T18:21:42.828Z,99040.25
2023-03-11T18:24:32.191Z,99041.50
2023-03-11T18:27:14.797Z,99034.69
2023-03-11T18:29:57.001Z,99039.16
2023-03-11T18:32:45.910Z,99034.81
2023-03-11T18:35:28.263Z,99027.69
2023-03-11T18:38:18.910Z,99026.84
2023-03-11T18:41:08.334Z,99021.44
2023-03-11T18:43:50.859Z,99018.44
2023-03-11T18:46:43.614Z,99019.25
2023-03-11T18:49:25.753Z,99023.81
2023-03-11T18:52:08.162Z,99020.00
2023-03-11T18:54:57.243Z,99019.19
2023-03-11T18:57:41.395Z,99016.72
2023-03-11T19:00:30.747Z,99017.44
2023-03-11T19:03:13.831Z,99016.56
2023-03-11T19:06:03.769Z,99016.25
2023-03-11T19:08:52.859Z,99025.56
2023-03-11T19:11:35.304Z,99026.84
2023-03-11T19:14:23.870Z,99017.63
2023-03-11T19:17:06.262Z,99020.59
2023-03-11T19:19:54.802Z,99015.97
2023-03-11T19:22:37.299Z,99019.19
2023-03-11T19:25:28.103Z,99019.16
2023-03-11T19:28:10.129Z,99013.16
2023-03-11T19:31:04.013Z,99012.59
2023-03-11T19:33:51.955Z,99017.75
2023-03-11T19:36:40.904Z,99010.66
2023-03-11T19:39:23.286Z,99015.22
2023-03-11T19:42:11.806Z,99013.28
2023-03-11T19:44:55.495Z,99016.41
2023-03-11T19:47:44.863Z,99011.47
2023-03-11T19:50:33.842Z,99016.31
2023-03-11T19:53:24.139Z,99008.72
2023-03-11T19:56:07.138Z,99015.13
2023-03-11T19:58:55.206Z,99020.16
2023-03-11T20:01:38.791Z,99019.03
2023-03-11T20:04:33.773Z,99019.25
2023-03-11T20:07:22.905Z,99012.75
2023-03-11T20:10:05.302Z,99017.25
2023-03-11T20:13:02.030Z,99008.13
2023-03-11T20:15:46.242Z,99001.63
2023-03-11T20:18:34.818Z,98998.34
2023-03-11T20:21:20.167Z,98992.97
2023-03-11T20:24:15.767Z,98991.59
2023-03-11T20:27:04.906Z,98992.09
2023-03-11T20:29:47.202Z,98988.34
2023-03-11T20:32:36.924Z,98989.16
2023-03-11T20:35:19.602Z,98976.44
2023-03-11T20:38:10.832Z,98980.91
2023-03-11T20:40:53.189Z,98975.19
2023-03-11T20:43:42.744Z,98981.06
2023-03-11T20:46:25.196Z,98974.56
2023-03-11T20:49:13.806Z,98982.88
2023-03-11T20:52:02.824Z,98972.38
2023-03-11T20:54:51.822Z,98977.19
2023-03-11T20:57:41.714Z,98970.94
2023-03-11T21:00:30.880Z,98972.50
2023-03-11T21:03:13.070Z,98969.25
2023-03-11T21:06:02.238Z,98967.31
2023-03-11T21:08:44.154Z,98966.16
2023-03-11T21:11:33.935Z,98957.56
2023-03-11T21:14:17.203Z,98960.50
2023-03-11T21:17:05.987Z,98958.56
2023-03-11T21:19:48.221Z,98960.69
2023-03-11T21:22:36.834Z,98953.69
2023-03-11T21:25:31.661Z,98954.25
2023-03-11T21:28:21.803Z,98964.50
2023-03-11T21:31:12.196Z,98963.13
2023-03-11T21:34:02.900Z,98956.38
2023-03-11T21:36:51.892Z,98959.06
2023-03-11T21:39:40.109Z,98954.72
2023-03-11T21:42:22.946Z,98953.59
2023-03-11T21:45:12.148Z,98960.84
2023-03-11T21:47:53.932Z,98963.91
2023-03-11T21:50:36.560Z,98959.19
2023-03-11T21:53:25.891Z,98961.53
2023-03-11T21:56:15.203Z,98958.28
2023-03-11T21:58:57.923Z,98959.91
2023-03-11T22:01:46.906Z,98970.63
2023-03-11T22:04:29.179Z,98971.53
2023-03-11T22:07:18.843Z,98964.28
2023-03-11T22:10:01.117Z,98975.44
2023-03-11T22:12:50.129Z,98970.69
2023-03-11T22:15:33.078Z,98972.38
2023-03-11T22:18:21.907Z,98977.31
2023-03-11T22:21:12.933Z,98970.78
2023-03-11T22:24:08.711Z,98975.81
2023-03-11T22:26:57.827Z,98987.56
2023-03-11T22:29:40.404Z,98979.47
2023-03-11T22:32:29.850Z,98973.31
2023-03-11T22:35:18.772Z,98972.63
2023-03-11T22:38:01.027Z,98970.44
2023-03-11T22:40:49.787Z,98966.06
2023-03-11T22:43:38.914Z,98966.19
2023-03-11T22:46:21.129Z,98965.22
2023-03-11T22:49:09.855Z,98967.13
2023-03-11T22:51:58.861Z,98970.38
2023-03-11T22:54:47.746Z,98975.47
2023-03-11T22:57:37.838Z,98980.09
2023-03-11T23:00:23.503Z,98979.13
2023-03-11T23:03:12.850Z,98980.78
2023-03-11T23:05:55.112Z,98981.53
2023-03-11T23:08:43.878Z,98972.25
2023-03-11T23:11:25.980Z,98982.44
2023-03-11T23:14:14.830Z,98979.19
2023-03-11T23:17:04.152Z,98980.00
2023-03-11T23:19:46.095Z,98985.69
2023-03-11T23:22:34.838Z,98986.69
2023-03-11T23:25:31.736Z,98988.56
2023-03-11T23:28:20.769Z,98988.38
2023-03-11T23:31:04.416Z,98996.38
2023-03-11T23:33:53.794Z,99002.28
2023-03-11T23:36:38.072Z,99002.66
2023-03-11T23:39:26.789Z,98995.72
2023-03-11T23:42:25.404Z,99003.16
2023-03-11T23:45:16.127Z,99000.72
2023-03-11T23:47:58.864Z,99003.22
2023-03-11T23:50:41.097Z,99002.81
2023-03-11T23:53:30.818Z,99000.72
2023-03-11T23:56:23.048Z,99006.50
2023-03-11T23:59:04.818Z,99006.50
